Time;durP1;ratioP1;P1;durP2;ratioP2;P2;SDS_P1;SDS_P2;PMS_P1;PMS_P2;Temp;Humidity;BMP_temperature;BMP_pressure;BME280_temperature;BME280_humidity;BME280_pressure;Samples;Min_cycle;Max_cycle;Signal;HPM_P1;HPM_P2
2023/04/17 04:42:32;;;;;;;;;;;;;;;5.92;77.55;100746.81;109513;1278;23300;-56
2023/04/17 04:45:15;;;;;;;;;;;;;;;6.01;77.01;100743.27;109373;1280;23890;-46
2023/04/17 04:47:44;;;;;;;;;;;;;;;6.12;76.41;100746.30;108657;1278;22564;-45
2023/04/17 04:50:12;;;;;;;;;;;;;;;6.22;76.37;100742.39;109632;1278;22503;-55
2023/04/17 04:52:40;;;;;;;;;;;;;;;6.35;76.15;100746.86;109719;1281;22435;-56
2023/04/17 04:55:18;;;;;;;;;;;;;;;6.48;75.18;100746.65;109617;1276;22440;-56
2023/04/17 04:57:52;;;;;;;;;;;;;;;6.57;74.75;100746.36;109646;1278;22657;-55
2023/04/17 05:00:21;;;;;;;;;;;;;;;6.68;74.46;100748.17;109580;1278;22962;-55
2023/04/17 05:02:53;;;;;;;;;;;;;;;6.78;73.78;100753.95;109558;1278;22474;-45
2023/04/17 05:05:24;;;;;;;;;;;;;;;6.86;73.40;100749.63;109559;1277;22446;-45
2023/04/17 05:07:53;;;;;;;;;;;;;;;6.95;72.97;100749.14;109490;1277;22442;-56
2023/04/17 05:10:24;;;;;;;;;;;;;;;7.05;72.17;100745.70;109378;1280;22472;-55
2023/04/17 05:12:56;;;;;;;;;;;;;;;7.14;71.71;100740.52;109471;1281;22524;-45
2023/04/17 05:15:25;;;;;;;;;;;;;;;7.22;71.35;100740.85;109346;1278;23477;-56
2023/04/17 05:17:54;;;;;;;;;;;;;;;7.31;70.62;100736.51;109534;1284;23001;-56
2023/04/17 05:20:24;;;;;;;;;;;;;;;7.39;70.16;100736.51;109457;1278;22901;-46
2023/04/17 05:22:56;;;;;;;;;;;;;;;7.46;70.20;100735.42;109084;1280;23357;-56
2023/04/17 05:25:26;;;;;;;;;;;;;;;7.54;69.81;100735.23;109191;1277;22552;-57
2023/04/17 05:27:58;;;;;;;;;;;;;;;7.61;68.82;100732.59;108902;1278;22639;-57
2023/04/17 05:30:30;;;;;;;;;;;;;;;7.67;68.83;100733.58;108815;1278;23148;-46
2023/04/17 05:33:25;;;;;;;;;;;;;;;7.79;69.22;100735.52;108675;1277;22894;-58
2023/04/17 05:36:08;;;;;;;;;;;;;;;7.92;69.04;100734.55;108358;1278;22600;-46
2023/04/17 05:39:21;;;;;;;;;;;;;;;8.07;67.57;100725.95;108196;1279;22608;-56
2023/04/17 05:41:51;;;;;;;;;;;;;;;8.21;67.39;100725.48;108260;1278;22540;-55
2023/04/17 05:44:19;;;;;;;;;;;;;;;8.33;66.71;100726.55;109110;1278;24226;-56
2023/04/17 05:46:47;;;;;;;;;;;;;;;8.41;65.76;100724.45;108914;1279;23261;-46
2023/04/17 05:49:15;;;;;;;;;;;;;;;8.48;64.68;100726.64;109397;1278;22455;-56
2023/04/17 05:51:43;;;;;;;;;;;;;;;8.54;64.10;100725.70;109412;1276;22901;-46
2023/04/17 05:54:12;;;;;;;;;;;;;;;8.62;63.73;100722.50;109107;1277;22459;-56
2023/04/17 05:56:41;;;;;;;;;;;;;;;8.66;62.75;100719.97;109064;1281;22509;-46
2023/04/17 05:59:09;;;;;;;;;;;;;;;8.67;61.73;100709.89;109153;1278;22543;-46
2023/04/17 06:01:38;;;;;;;;;;;;;;;8.69;62.04;100707.14;108655;1278;23407;-57
2023/04/17 06:04:08;;;;;;;;;;;;;;;8.75;62.14;100705.31;108190;1278;22475;-56
2023/04/17 06:06:36;;;;;;;;;;;;;;;8.85;61.35;100704.05;108855;1278;22886;-46
2023/04/17 06:09:06;;;;;;;;;;;;;;;8.91;61.27;100704.14;109410;1279;22498;-46
2023/04/17 06:11:34;;;;;;;;;;;;;;;8.99;60.87;100702.48;109473;1278;22447;-46
2023/04/17 06:14:03;;;;;;;;;;;;;;;9.07;61.23;100707.29;109286;1277;22453;-55
2023/04/17 06:16:37;;;;;;;;;;;;;;;9.15;60.94;100706.34;109197;1277;23830;-47
2023/04/17 06:19:23;;;;;;;;;;;;;;;9.23;59.98;100706.79;107984;1277;22546;-57
2023/04/17 06:21:52;;;;;;;;;;;;;;;9.26;59.84;100705.77;108711;1277;23136;-46
2023/04/17 06:24:39;;;;;;;;;;;;;;;9.30;59.57;100703.58;108081;1277;22502;-47
2023/04/17 06:27:13;;;;;;;;;;;;;;;9.33;59.57;100699.77;108779;1278;22494;-47
2023/04/17 06:29:42;;;;;;;;;;;;;;;9.37;59.69;100698.77;108887;1277;22539;-47
2023/04/17 06:32:12;;;;;;;;;;;;;;;9.43;59.13;100702.31;109336;1278;22496;-47
2023/04/17 06:34:44;;;;;;;;;;;;;;;9.44;59.33;100700.58;108656;1278;22519;-51
2023/04/17 06:37:49;;;;;;;;;;;;;;;9.47;59.46;100703.06;108577;1277;22518;-46
2023/04/17 06:40:28;;;;;;;;;;;;;;;9.54;59.37;100701.41;108610;1278;22499;-60
2023/04/17 06:43:09;;;;;;;;;;;;;;;9.63;58.42;100704.10;108255;1277;23166;-56
2023/04/17 06:46:17;;;;;;;;;;;;;;;9.67;58.17;100703.45;108147;1278;22567;-55
2023/04/17 06:49:47;;;;;;;;;;;;;;;9.76;58.21;100704.92;108820;1277;24138;-47
2023/04/17 06:52:48;;;;;;;;;;;;;;;9.82;58.38;100706.05;109290;1278;22499;-46
2023/04/17 06:55:35;;;;;;;;;;;;;;;9.94;57.56;100712.95;109422;1277;22591;-47
2023/04/17 06:58:04;;;;;;;;;;;;;;;9.98;56.89;100708.98;108738;1278;22872;-58
2023/04/17 07:00:35;;;;;;;;;;;;;;;9.96;56.96;100709.29;107803;1281;22571;-57
2023/04/17 07:03:05;;;;;;;;;;;;;;;9.95;57.74;100704.76;108676;1278;22664;-45
2023/04/17 07:08:59;;;;;;;;;;;;;;;10.04;57.15;100702.75;108247;1276;23287;-47
2023/04/17 07:11:34;;;;;;;;;;;;;;;10.07;56.80;100696.15;108750;1278;22491;-49
2023/04/17 07:14:05;;;;;;;;;;;;;;;10.08;55.91;100693.01;108820;1283;22685;-56
2023/04/17 07:16:36;;;;;;;;;;;;;;;10.08;56.74;100685.19;108012;1278;23052;-45
2023/04/17 07:19:14;;;;;;;;;;;;;;;10.14;57.02;100682.27;108400;1278;22523;-47
2023/04/17 07:21:45;;;;;;;;;;;;;;;10.26;56.63;100678.38;107943;1280;23915;-54
2023/04/17 07:24:18;;;;;;;;;;;;;;;10.40;56.26;100676.56;108956;1277;22599;-47
2023/04/17 07:26:57;;;;;;;;;;;;;;;10.55;55.98;100675.09;108522;1278;22834;-55
2023/04/17 07:30:12;;;;;;;;;;;;;;;10.72;55.60;100673.44;108422;1279;23066;-56
2023/04/17 07:33:05;;;;;;;;;;;;;;;10.87;55.19;100665.14;108852;1277;22520;-58
2023/04/17 07:35:35;;;;;;;;;;;;;;;10.99;53.80;100665.02;108257;1278;22532;-44
2023/04/17 07:38:04;;;;;;;;;;;;;;;11.07;54.45;100668.02;109192;1281;22560;-46
2023/04/17 07:40:35;;;;;;;;;;;;;;;11.15;53.34;100667.54;108785;1278;22512;-56
2023/04/17 07:43:03;;;;;;;;;;;;;;;11.15;51.59;100669.98;109387;1277;23317;-46
2023/04/17 07:45:32;;;;;;;;;;;;;;;11.13;50.13;100668.77;107958;1280;23344;-56
2023/04/17 07:48:01;;;;;;;;;;;;;;;11.14;49.73;100664.73;108964;1278;22594;-57
2023/04/17 07:50:32;;;;;;;;;;;;;;;11.18;49.61;100663.69;108698;1281;22518;-46
2023/04/17 07:53:02;;;;;;;;;;;;;;;11.26;49.99;100658.83;109069;1279;23373;-46
2023/04/17 07:55:30;;;;;;;;;;;;;;;11.40;50.50;100657.30;109268;1278;22450;-57
2023/04/17 07:58:02;;;;;;;;;;;;;;;11.57;50.80;100655.77;109203;1281;22527;-46
2023/04/17 08:00:37;;;;;;;;;;;;;;;11.71;48.43;100655.77;108609;1281;22629;-56
2023/04/17 08:03:08;;;;;;;;;;;;;;;11.70;47.33;100651.05;109119;1284;22447;-56
2023/04/17 08:05:36;;;;;;;;;;;;;;;11.68;47.31;100649.66;108967;1278;22632;-55
2023/04/17 08:08:06;;;;;;;;;;;;;;;11.74;47.29;100649.48;109192;1278;23017;-56
2023/04/17 08:10:38;;;;;;;;;;;;;;;11.87;47.64;100644.98;107960;1278;22537;-54
2023/04/17 08:13:07;;;;;;;;;;;;;;;12.00;46.54;100640.61;108276;1278;22508;-57
2023/04/17 08:15:39;;;;;;;;;;;;;;;12.13;47.40;100631.87;108200;1278;22493;-55
2023/04/17 08:18:11;;;;;;;;;;;;;;;12.33;46.83;100630.61;108741;1279;22559;-49
2023/04/17 08:20:40;;;;;;;;;;;;;;;12.49;45.09;100630.76;109278;1281;23067;-56
2023/04/17 08:23:14;;;;;;;;;;;;;;;12.62;44.58;100631.77;108878;1279;22515;-55
2023/04/17 08:25:47;;;;;;;;;;;;;;;12.76;44.63;100625.95;108485;1280;22515;-56
2023/04/17 08:28:31;;;;;;;;;;;;;;;12.93;44.19;100628.51;109048;1281;22519;-57
2023/04/17 08:31:01;;;;;;;;;;;;;;;13.03;42.10;100628.80;109426;1280;22547;-57
2023/04/17 08:33:30;;;;;;;;;;;;;;;13.11;41.82;100621.06;109026;1278;22492;-46
2023/04/17 08:35:59;;;;;;;;;;;;;;;13.19;40.95;100617.17;108864;1277;23287;-57
2023/04/17 08:38:31;;;;;;;;;;;;;;;13.28;41.09;100619.08;109451;1281;22423;-46
2023/04/17 08:41:04;;;;;;;;;;;;;;;13.40;40.62;100615.32;109356;1281;22526;-56
2023/04/17 08:43:34;;;;;;;;;;;;;;;13.49;40.17;100610.19;108971;1278;22948;-56
2023/04/17 08:46:08;;;;;;;;;;;;;;;13.62;41.57;100610.96;108900;1278;22628;-55
2023/04/17 08:48:39;;;;;;;;;;;;;;;13.75;41.63;100598.59;108789;1277;22496;-47
2023/04/17 08:51:42;;;;;;;;;;;;;;;13.92;40.44;100589.50;108723;1283;22968;-57
2023/04/17 08:54:24;;;;;;;;;;;;;;;14.06;38.23;100585.34;108687;1267;22579;-44
2023/04/17 08:57:03;;;;;;;;;;;;;;;14.19;36.97;100581.16;108038;1280;22665;-47
2023/04/17 08:59:34;;;;;;;;;;;;;;;14.28;38.75;100576.69;109020;1278;22594;-46
2023/04/17 09:02:05;;;;;;;;;;;;;;;14.41;38.38;100576.55;108848;1283;22528;-46
2023/04/17 09:04:40;;;;;;;;;;;;;;;14.51;38.02;100578.92;108979;1278;22520;-56
2023/04/17 09:07:09;;;;;;;;;;;;;;;14.60;36.73;100578.81;109036;1280;22896;-58
2023/04/17 09:09:46;;;;;;;;;;;;;;;14.68;36.95;100576.27;108844;1278;23227;-47
2023/04/17 09:12:15;;;;;;;;;;;;;;;14.74;37.61;100571.27;108620;1278;25300;-57
2023/04/17 09:14:52;;;;;;;;;;;;;;;14.83;37.28;100570.27;108524;1279;22519;-48
2023/04/17 09:17:32;;;;;;;;;;;;;;;14.89;35.52;100554.92;108036;1284;22879;-45
2023/04/17 09:20:07;;;;;;;;;;;;;;;14.87;34.98;100553.88;108198;1280;22991;-55
2023/04/17 09:22:39;;;;;;;;;;;;;;;14.91;35.14;100551.04;108631;1278;22475;-48
2023/04/17 09:25:22;;;;;;;;;;;;;;;14.95;34.67;100549.57;109464;1278;23249;-46
2023/04/17 09:27:53;;;;;;;;;;;;;;;14.98;34.94;100549.02;108239;1277;22866;-56
2023/04/17 09:30:35;;;;;;;;;;;;;;;15.05;35.66;100543.29;109105;1278;22547;-48
2023/04/17 09:33:06;;;;;;;;;;;;;;;15.11;36.89;100543.38;108943;1280;22517;-45
2023/04/17 09:35:39;;;;;;;;;;;;;;;15.21;36.70;100539.19;109120;1280;23283;-55
2023/04/17 09:38:10;;;;;;;;;;;;;;;15.31;36.07;100542.89;108797;1284;23876;-45
2023/04/17 09:40:39;;;;;;;;;;;;;;;15.32;33.63;100537.79;108964;1280;22539;-45
2023/04/17 09:43:09;;;;;;;;;;;;;;;15.26;32.78;100532.95;108980;1281;22491;-46
2023/04/17 09:45:40;;;;;;;;;;;;;;;15.20;34.46;100530.60;108133;1280;22521;-47
2023/04/17 09:48:11;;;;;;;;;;;;;;;15.20;35.73;100532.52;109096;1278;23315;-55
2023/04/17 09:50:39;;;;;;;;;;;;;;;15.26;36.13;100530.48;108904;1278;23393;-46
2023/04/17 09:53:24;;;;;;;;;;;;;;;15.33;35.03;100524.23;107024;1280;26488;-56
2023/04/17 09:55:57;;;;;;;;;;;;;;;15.36;34.85;100528.58;108840;1280;22515;-47
2023/04/17 09:58:28;;;;;;;;;;;;;;;15.39;35.28;100533.27;108285;1281;22547;-55
2023/04/17 10:00:56;;;;;;;;;;;;;;;15.43;35.40;100531.13;108184;1286;22705;-47
2023/04/17 10:03:28;;;;;;;;;;;;;;;15.50;35.89;100530.30;108409;1287;23207;-45
2023/04/17 10:05:59;;;;;;;;;;;;;;;15.61;35.58;100526.07;108406;1280;23022;-57
2023/04/17 10:08:28;;;;;;;;;;;;;;;15.71;34.17;100523.81;108621;1280;22602;-56
2023/04/17 10:11:02;;;;;;;;;;;;;;;15.79;33.97;100523.31;107879;1282;22620;-57
2023/04/17 10:13:33;;;;;;;;;;;;;;;15.89;34.91;100520.67;108546;1280;23483;-45
2023/04/17 10:16:02;;;;;;;;;;;;;;;16.01;34.26;100518.89;109115;1280;22547;-44
2023/04/17 10:18:31;;;;;;;;;;;;;;;16.06;35.25;100512.96;109391;1279;22533;-50
2023/04/17 10:21:18;;;;;;;;;;;;;;;16.15;34.66;100516.67;109249;1286;23241;-47
2023/04/17 10:23:46;;;;;;;;;;;;;;;16.20;33.47;100517.28;109390;1286;22917;-46
2023/04/17 10:26:34;;;;;;;;;;;;;;;16.25;33.80;100516.66;109198;1280;22441;-54
2023/04/17 10:29:02;;;;;;;;;;;;;;;16.31;34.10;100518.66;109387;1286;22844;-60
2023/04/17 10:31:57;;;;;;;;;;;;;;;16.37;34.19;100515.89;109046;1287;23282;-55
2023/04/17 10:34:33;;;;;;;;;;;;;;;16.42;33.04;100516.66;108557;1286;22491;-44
2023/04/17 10:37:03;;;;;;;;;;;;;;;16.38;33.28;100511.45;108522;1292;22809;-45
2023/04/17 10:39:53;;;;;;;;;;;;;;;16.39;33.87;100507.73;108295;1280;22529;-57
2023/04/17 10:42:24;;;;;;;;;;;;;;;16.45;34.61;100506.92;108602;1287;22512;-47
2023/04/17 10:44:57;;;;;;;;;;;;;;;16.49;33.44;100503.30;108234;1288;22523;-56
2023/04/17 10:47:33;;;;;;;;;;;;;;;16.52;33.46;100502.02;108219;1287;22498;-45
2023/04/17 10:50:08;;;;;;;;;;;;;;;16.59;33.30;100499.94;108213;1287;23563;-46
2023/04/17 10:52:40;;;;;;;;;;;;;;;16.66;33.12;100494.52;108296;1287;22519;-56
2023/04/17 10:55:16;;;;;;;;;;;;;;;16.66;33.28;100491.15;108678;1287;23300;-56
2023/04/17 10:58:01;;;;;;;;;;;;;;;16.64;32.29;100487.33;108651;1286;22581;-47
2023/04/17 11:00:31;;;;;;;;;;;;;;;16.62;32.36;100489.12;108690;1294;23081;-47
2023/04/17 11:03:00;;;;;;;;;;;;;;;16.62;32.33;100492.98;108765;1293;22448;-48
2023/04/17 11:05:30;;;;;;;;;;;;;;;16.67;32.84;100490.77;108743;1290;22529;-56
2023/04/17 11:07:58;;;;;;;;;;;;;;;16.75;32.09;100492.59;108704;1292;23256;-56
2023/04/17 11:10:26;;;;;;;;;;;;;;;16.76;31.27;100492.02;108742;1293;22453;-56
2023/04/17 11:12:55;;;;;;;;;;;;;;;16.72;30.76;100491.40;109439;1285;22487;-46
2023/04/17 11:15:30;;;;;;;;;;;;;;;16.71;31.29;100490.20;109419;1285;22529;-46
2023/04/17 11:17:58;;;;;;;;;;;;;;;16.69;30.83;100487.02;109500;1285;22418;-46
2023/04/17 11:20:30;;;;;;;;;;;;;;;16.72;30.70;100488.41;109394;1280;136244;-48
2023/04/17 11:23:01;;;;;;;;;;;;;;;16.85;30.63;100489.55;109552;1285;23096;-46
2023/04/17 11:25:32;;;;;;;;;;;;;;;16.92;29.94;100484.08;109514;1285;22870;-56
2023/04/17 11:28:02;;;;;;;;;;;;;;;16.94;29.85;100482.98;109609;1285;22448;-45
2023/04/17 11:30:34;;;;;;;;;;;;;;;17.01;30.08;100483.52;109599;1283;22442;-46
2023/04/17 11:33:03;;;;;;;;;;;;;;;17.12;30.07;100476.20;109371;1281;23884;-57
2023/04/17 11:35:32;;;;;;;;;;;;;;;17.21;30.00;100476.35;108111;1285;24093;-57
2023/04/17 11:38:13;;;;;;;;;;;;;;;17.29;30.40;100473.85;108479;1281;23328;-56
2023/04/17 11:40:48;;;;;;;;;;;;;;;17.42;28.89;100469.30;109655;1285;22562;-56
2023/04/17 11:43:17;;;;;;;;;;;;;;;17.41;28.42;100473.04;109691;1280;22434;-46
2023/04/17 11:45:46;;;;;;;;;;;;;;;17.36;28.90;100464.54;109696;1285;22430;-46
2023/04/17 11:48:14;;;;;;;;;;;;;;;17.34;28.64;100467.03;109587;1285;22390;-46
2023/04/17 11:50:43;;;;;;;;;;;;;;;17.28;28.51;100468.77;109649;1285;22504;-56
2023/04/17 11:53:12;;;;;;;;;;;;;;;17.21;28.34;100467.71;109716;1285;22434;-46
2023/04/17 11:55:40;;;;;;;;;;;;;;;17.17;29.03;100460.95;109685;1281;22447;-46
2023/04/17 11:58:08;;;;;;;;;;;;;;;17.19;28.81;100455.79;109665;1284;22427;-57
2023/04/17 12:00:37;;;;;;;;;;;;;;;17.21;28.74;100460.13;109680;1281;22468;-47
2023/04/17 12:03:23;;;;;;;;;;;;;;;17.21;28.13;100458.36;109700;1284;22432;-57
2023/04/17 12:06:01;;;;;;;;;;;;;;;17.19;28.90;100454.02;108874;1283;23106;-48
2023/04/17 12:08:30;;;;;;;;;;;;;;;17.26;28.16;100453.83;109707;1285;22445;-57
2023/04/17 12:10:58;;;;;;;;;;;;;;;17.29;28.66;100447.22;107887;1285;22513;-46
2023/04/17 12:13:26;;;;;;;;;;;;;;;17.39;29.17;100447.00;108652;1285;22513;-56
2023/04/17 12:15:54;;;;;;;;;;;;;;;17.49;28.95;100445.48;109640;1285;22526;-46
2023/04/17 12:18:22;;;;;;;;;;;;;;;17.64;29.28;100452.33;109678;1285;22419;-47
2023/04/17 12:20:51;;;;;;;;;;;;;;;17.79;28.14;100450.20;109705;1285;23246;-47
2023/04/17 12:23:19;;;;;;;;;;;;;;;17.89;28.76;100443.58;109733;1285;22583;-46
2023/04/17 12:25:47;;;;;;;;;;;;;;;18.00;28.53;100439.56;109730;1285;22423;-56
2023/04/17 12:28:15;;;;;;;;;;;;;;;18.11;28.33;100437.50;109588;1285;22404;-47
2023/04/17 12:30:44;;;;;;;;;;;;;;;18.11;28.41;100436.62;109360;1285;23546;-47
2023/04/17 12:33:11;;;;;;;;;;;;;;;18.15;28.23;100435.43;109675;1285;23120;-57
2023/04/17 12:35:39;;;;;;;;;;;;;;;18.11;27.78;100429.54;109671;1285;23263;-56
2023/04/17 12:38:07;;;;;;;;;;;;;;;18.02;28.27;100433.48;109718;1285;23602;-46
2023/04/17 12:40:37;;;;;;;;;;;;;;;17.95;27.92;100431.05;108407;1285;22548;-56
2023/04/17 12:43:07;;;;;;;;;;;;;;;17.93;28.63;100428.81;107561;1285;25345;-45
2023/04/17 12:45:36;;;;;;;;;;;;;;;18.02;28.91;100424.84;107894;1285;22514;-47
2023/04/17 12:48:04;;;;;;;;;;;;;;;18.16;28.91;100418.45;106725;1285;22514;-46
2023/04/17 12:50:39;;;;;;;;;;;;;;;18.20;28.23;100417.61;106795;1285;22542;-55
2023/04/17 12:53:08;;;;;;;;;;;;;;;18.20;28.68;100418.50;106617;1285;22520;-49
2023/04/17 12:55:40;;;;;;;;;;;;;;;18.20;27.73;100416.57;107144;1285;22503;-47
2023/04/17 12:58:09;;;;;;;;;;;;;;;18.14;27.27;100414.61;109747;1285;22405;-47
2023/04/17 13:00:37;;;;;;;;;;;;;;;18.11;27.49;100419.30;109727;1285;22532;-47
2023/04/17 13:03:05;;;;;;;;;;;;;;;18.18;27.44;100419.96;109762;1285;23263;-57
2023/04/17 13:05:34;;;;;;;;;;;;;;;18.20;27.23;100416.56;108391;1285;25216;-47
2023/04/17 13:08:02;;;;;;;;;;;;;;;18.15;26.53;100418.47;107249;1285;25266;-57
2023/04/17 13:10:30;;;;;;;;;;;;;;;18.07;26.64;100416.59;108254;1285;22568;-57
2023/04/17 13:12:58;;;;;;;;;;;;;;;17.99;26.76;100418.94;109772;1285;22485;-44
2023/04/17 13:15:26;;;;;;;;;;;;;;;17.90;27.35;100419.90;107723;1285;22551;-47
2023/04/17 13:17:54;;;;;;;;;;;;;;;17.85;27.85;100418.45;107839;1285;25368;-58
2023/04/17 13:20:23;;;;;;;;;;;;;;;17.81;27.38;100419.09;107493;1285;23385;-58
